Cancún International Airport
MMUN : now visible

Airfield :











YOU CAN JOIN US ON...

 
LOGIN :

Register | Disclaimer

   EN    FR    IT 

 









Legend :    VFR   Marginal VFR   IFR   Intensive IFR   Very Intensive IFR
Visi :
Ceiling :
>= 8 km
>= 3000ft
5 to 8 km
1000 to 3000 ft
1500m to 5 km
500 to 1000 ft
800 to 1500m
200 to 500 ft
< 800m
< 200 ft
Symbols :   Thunderstorms  Fog  Heavy snow  Heavy precipitations  Wind > 20 kt






- Airport Elevation : 20 ft
- IATA code : CUN


MMUN - Cancún International

CURRENT METAR :
  • 212040Z 12015KT 6SM SCT015CB BKN080 BKN250 30/22 A2992 RMK SLP134 57022 916 8/963 HZY PCPN N

EXPIRED METARs :
  • 211940Z 14014KT 7SM SCT015TCU 31/23 A2994 RMK 8/200 HZY
  • 211846Z 15009KT 7SM SCT015TCU 32/23 A2996 RMK 8/200 HZY

TAF AMD TAF MMUN
Valid from the 21 at 21:00 until the 23 at 00:00 UTC


212058Z 2121/2224 12015KT 6SM HZ VC RA SCT015CB BKN080 BKN250 TX32/2218Z TN25/2211Z
TEMPO 2121/2124 4SM -TSRA BKN015CB
FM220200 12008KT P6SM SCT015
TEMPO 2210/2214 5SM RA BKN010 OVC015
FM221500 12012KT P6SM BKN015
BECMG 2216/2217 SCT015
MMFR FIR / North America



MET'MAP, your aeronautical weather chart ! - Copyright ORBIFLY December 2007 - Disclaimer

ORBIFLY MET'MAP TEAM :

Programming & Development : Alexandra Zaïnal
Concept & original design : Baudouin d'Aumeries
Assistance for programming : Marc-Olivier Méhu
Technical & hardware support : Manuel Goepfert

Contact : metmap@orbifly.com




SOURCES & CREDITS :

   NOAA       Earth
Advisory